Time;durP1;ratioP1;P1;durP2;ratioP2;P2;SDS_P1;SDS_P2;PMS_P1;PMS_P2;Temp;Humidity;BMP_temperature;BMP_pressure;BME280_temperature;BME280_humidity;BME280_pressure;Samples;Min_cycle;Max_cycle;Signal;HPM_P1;HPM_P2
2023/10/10 00:01:17;;;;;;;21.38;7.38;;;12.80;99.90;;;;;;5032577;28;20042;-85
2023/10/10 00:03:45;;;;;;;17.60;7.38;;;12.60;99.90;;;;;;5032312;28;20044;-84
2023/10/10 00:06:13;;;;;;;16.92;7.53;;;12.50;99.90;;;;;;5032322;28;20033;-84
2023/10/10 00:08:43;;;;;;;15.63;6.70;;;12.40;99.90;;;;;;5032419;28;20064;-83
2023/10/10 00:11:18;;;;;;;17.20;7.35;;;12.30;99.90;;;;;;5032458;28;20083;-84
2023/10/10 00:13:46;;;;;;;21.00;7.97;;;12.20;99.90;;;;;;5032525;28;20031;-84
2023/10/10 00:16:26;;;;;;;18.52;7.75;;;12.10;99.90;;;;;;5032681;28;20060;-84
2023/10/10 00:18:55;;;;;;;20.00;6.88;;;12.10;99.90;;;;;;5032734;28;20377;-84
2023/10/10 00:21:28;;;;;;;14.65;6.95;;;12.00;99.90;;;;;;5016405;28;20038;-85
2023/10/10 00:23:55;;;;;;;19.90;7.43;;;12.00;99.90;;;;;;5032755;28;20139;-84
2023/10/10 00:26:22;;;;;;;19.77;7.30;;;12.00;99.90;;;;;;5031921;28;20136;-84
2023/10/10 00:28:56;;;;;;;14.90;6.90;;;12.00;99.90;;;;;;5032113;28;20030;-84
2023/10/10 00:31:23;;;;;;;12.55;6.40;;;11.80;99.90;;;;;;5033411;28;20388;-84
2023/10/10 00:33:53;;;;;;;16.08;6.78;;;11.70;99.90;;;;;;5032291;28;20036;-85
2023/10/10 00:36:54;;;;;;;15.55;7.22;;;11.70;99.90;;;;;;5033401;28;20488;-84
2023/10/10 00:41:50;;;;;;;17.98;7.35;;;11.60;99.90;;;;;;5031578;28;20041;-84
2023/10/10 00:44:25;;;;;;;18.02;7.15;;;11.50;99.90;;;;;;5031405;28;20041;-84
2023/10/10 00:46:55;;;;;;;16.80;7.53;;;11.50;99.90;;;;;;5031865;28;20686;-85
2023/10/10 00:49:31;;;;;;;18.63;7.22;;;11.40;99.90;;;;;;5032339;28;20060;-84
2023/10/10 00:52:07;;;;;;;14.98;7.00;;;11.40;99.90;;;;;;5031430;28;20037;-84
2023/10/10 00:54:39;;;;;;;14.52;6.82;;;11.30;99.90;;;;;;5031342;28;20029;-84
2023/10/10 00:57:08;;;;;;;16.98;7.22;;;11.30;99.90;;;;;;5031941;28;20086;-84
2023/10/10 00:59:42;;;;;;;13.52;6.45;;;11.20;99.90;;;;;;5031876;28;20040;-85
2023/10/10 01:02:10;;;;;;;15.23;7.43;;;11.20;99.90;;;;;;5031479;28;20029;-84
2023/10/10 01:04:57;;;;;;;13.73;6.22;;;11.20;99.90;;;;;;5031807;28;20037;-84
2023/10/10 01:07:48;;;;;;;22.33;7.00;;;11.20;99.90;;;;;;5015426;28;20025;-85
2023/10/10 01:10:16;;;;;;;13.50;6.40;;;11.30;99.90;;;;;;5031916;28;20136;-84
2023/10/10 01:12:46;;;;;;;14.98;6.72;;;11.30;99.90;;;;;;5031587;28;20040;-84
2023/10/10 01:15:24;;;;;;;20.05;7.78;;;11.20;99.90;;;;;;5031584;28;20034;-84
2023/10/10 01:17:51;;;;;;;13.10;7.03;;;11.20;99.90;;;;;;5031722;28;20491;-84
2023/10/10 01:20:34;;;;;;;13.73;6.70;;;11.20;99.90;;;;;;5031603;28;20049;-84
2023/10/10 01:23:02;;;;;;;17.52;7.65;;;11.10;99.90;;;;;;5030918;28;20599;-85
2023/10/10 01:28:05;;;;;;;18.35;8.38;;;11.10;99.90;;;;;;5031347;28;20637;-84
2023/10/10 01:30:44;;;;;;;17.45;7.40;;;11.00;99.90;;;;;;5031378;28;20041;-84
2023/10/10 01:33:14;;;;;;;15.63;7.07;;;11.00;99.90;;;;;;5031026;28;20566;-84
2023/10/10 01:36:12;;;;;;;18.67;7.45;;;10.90;99.90;;;;;;5031738;28;20063;-85
2023/10/10 01:38:56;;;;;;;15.95;7.07;;;10.90;99.90;;;;;;5031052;28;20448;-84
2023/10/10 01:41:58;;;;;;;15.73;6.57;;;10.80;99.90;;;;;;5014570;28;20029;-84
2023/10/10 01:44:27;;;;;;;16.70;7.60;;;10.80;99.90;;;;;;5029906;28;20132;-84
2023/10/10 01:47:18;;;;;;;17.23;7.45;;;10.70;99.90;;;;;;5031210;28;20088;-84
2023/10/10 01:50:21;;;;;;;14.90;7.17;;;10.70;99.90;;;;;;5030941;28;20032;-84
2023/10/10 01:52:50;;;;;;;21.52;7.80;;;10.60;99.90;;;;;;5014370;28;20785;-84
2023/10/10 01:55:18;;;;;;;14.13;7.45;;;10.50;99.90;;;;;;5030865;28;20037;-85
2023/10/10 01:57:44;;;;;;;15.77;7.93;;;10.50;99.90;;;;;;5031348;28;20124;-84
2023/10/10 02:00:21;;;;;;;18.58;7.97;;;10.50;99.90;;;;;;5031222;28;20128;-84
2023/10/10 02:02:49;;;;;;;14.25;7.70;;;10.50;99.90;;;;;;5014347;28;20059;-84
2023/10/10 02:05:30;;;;;;;20.88;8.32;;;10.50;99.90;;;;;;5033532;28;20056;-84
2023/10/10 02:07:57;;;;;;;22.10;8.25;;;10.50;99.90;;;;;;5035270;28;20040;-84
2023/10/10 02:10:26;;;;;;;17.73;7.38;;;10.50;99.90;;;;;;5035392;28;20026;-83
2023/10/10 02:12:52;;;;;;;19.00;8.13;;;10.60;99.90;;;;;;5018933;28;20025;-84
2023/10/10 02:15:19;;;;;;;19.27;7.93;;;10.60;99.90;;;;;;5035444;28;20040;-84
2023/10/10 02:18:04;;;;;;;15.23;7.60;;;10.60;99.90;;;;;;5034902;28;20502;-84
2023/10/10 02:23:09;;;;;;;19.17;7.95;;;10.60;99.90;;;;;;5034710;28;20060;-84
2023/10/10 02:30:46;;;;;;;19.63;7.93;;;10.40;99.90;;;;;;5035128;28;20741;-85
2023/10/10 02:35:54;;;;;;;14.32;7.22;;;10.30;99.90;;;;;;5035302;28;20480;-84
2023/10/10 02:38:32;;;;;;;17.42;7.45;;;10.30;99.90;;;;;;5035117;28;20034;-84
2023/10/10 02:43:46;;;;;;;14.65;6.88;;;10.10;99.90;;;;;;5034699;28;20022;-85
2023/10/10 02:46:18;;;;;;;19.35;7.00;;;10.10;99.90;;;;;;5034214;28;20037;-84
2023/10/10 02:48:45;;;;;;;18.88;8.05;;;10.10;99.90;;;;;;5034373;28;20034;-84
2023/10/10 02:51:15;;;;;;;16.48;6.53;;;10.00;99.90;;;;;;5034230;28;20076;-84
2023/10/10 02:53:46;;;;;;;15.32;7.55;;;10.00;99.90;;;;;;5017658;28;20034;-84
2023/10/10 02:56:19;;;;;;;19.23;6.93;;;9.90;99.90;;;;;;5035883;28;20037;-84
2023/10/10 02:58:54;;;;;;;17.13;7.07;;;9.90;99.90;;;;;;5034545;28;20037;-84
2023/10/10 03:04:08;;;;;;;16.63;7.65;;;9.80;99.90;;;;;;5034684;28;20034;-84
2023/10/10 03:06:34;;;;;;;16.42;8.00;;;9.80;99.90;;;;;;5034375;28;20111;-84
2023/10/10 03:09:12;;;;;;;19.08;7.97;;;9.80;99.90;;;;;;5034122;28;20669;-84
2023/10/10 03:11:53;;;;;;;24.08;8.98;;;9.80;99.90;;;;;;5034132;28;20487;-84
2023/10/10 03:14:28;;;;;;;19.02;7.95;;;9.80;99.90;;;;;;5034032;28;20060;-84
2023/10/10 03:17:19;;;;;;;14.10;7.32;;;9.70;99.90;;;;;;5017757;28;20103;-84
2023/10/10 03:19:50;;;;;;;14.63;6.72;;;9.70;99.90;;;;;;5033740;28;20029;-84
2023/10/10 03:25:21;;;;;;;13.70;7.28;;;9.60;99.90;;;;;;5033439;28;20073;-85
2023/10/10 03:27:54;;;;;;;18.60;8.02;;;9.60;99.90;;;;;;5033744;28;20025;-84
2023/10/10 03:30:50;;;;;;;18.33;8.18;;;9.60;99.90;;;;;;5033676;28;20049;-84
2023/10/10 03:33:29;;;;;;;20.38;8.40;;;9.60;99.90;;;;;;5032914;28;20033;-84
2023/10/10 03:36:02;;;;;;;15.18;7.30;;;9.60;99.90;;;;;;5034189;28;20052;-85
2023/10/10 05:23:49;;;;;;;22.55;11.60;;;8.90;99.90;;;;;;5031336;28;20068;-85
2023/10/10 05:26:19;;;;;;;23.55;10.82;;;8.90;99.90;;;;;;5014532;28;20118;-83
2023/10/10 05:28:48;;;;;;;23.02;12.52;;;8.90;99.90;;;;;;5014779;28;20060;-84
2023/10/10 05:31:21;;;;;;;24.02;10.85;;;8.90;99.90;;;;;;5014831;28;20472;-84
2023/10/10 05:33:47;;;;;;;23.55;10.35;;;9.00;99.90;;;;;;5031554;28;20037;-84
2023/10/10 05:36:13;;;;;;;26.17;10.85;;;8.90;99.90;;;;;;5047995;28;20021;-82
2023/10/10 05:38:39;;;;;;;25.95;11.30;;;9.00;99.90;;;;;;5030489;28;20040;-84
2023/10/10 05:41:06;;;;;;;34.05;11.32;;;9.00;99.90;;;;;;5030604;28;20029;-83
2023/10/10 05:43:36;;;;;;;36.60;11.30;;;9.00;99.90;;;;;;5030852;28;20033;-83
2023/10/10 05:46:06;;;;;;;26.58;12.68;;;9.10;99.90;;;;;;5015232;28;20041;-82
2023/10/10 05:48:32;;;;;;;23.02;11.10;;;9.10;99.90;;;;;;5030990;28;20451;-83
2023/10/10 05:50:59;;;;;;;22.10;11.45;;;9.10;99.90;;;;;;5014320;28;20542;-84
2023/10/10 05:53:26;;;;;;;23.85;10.25;;;9.10;99.90;;;;;;5046748;28;20049;-83
2023/10/10 05:55:58;;;;;;;26.23;10.35;;;9.10;99.90;;;;;;5047154;28;20052;-83
2023/10/10 05:58:25;;;;;;;26.35;10.80;;;9.10;99.90;;;;;;5029517;28;20113;-83
2023/10/10 06:00:53;;;;;;;25.55;11.80;;;9.20;99.90;;;;;;5012611;28;20655;-83
2023/10/10 06:03:21;;;;;;;22.10;10.38;;;9.20;99.90;;;;;;5030282;28;20128;-83
2023/10/10 06:05:49;;;;;;;24.23;12.10;;;9.30;99.90;;;;;;5014249;28;20038;-83
2023/10/10 06:08:15;;;;;;;33.53;14.52;;;9.30;99.90;;;;;;5030109;28;20712;-83
2023/10/10 06:10:42;;;;;;;35.80;15.40;;;9.40;99.90;;;;;;5047171;28;20048;-83
2023/10/10 06:13:10;;;;;;;30.13;13.27;;;9.50;99.90;;;;;;5014093;28;20087;-84
2023/10/10 06:15:36;;;;;;;25.58;10.60;;;9.60;99.90;;;;;;5014072;28;20818;-83
2023/10/10 06:18:12;;;;;;;25.92;10.55;;;9.60;99.90;;;;;;5030902;28;20580;-84
2023/10/10 06:20:42;;;;;;;22.02;11.07;;;9.80;99.90;;;;;;5046351;28;20033;-83
2023/10/10 06:23:17;;;;;;;23.52;10.60;;;9.90;99.90;;;;;;5030739;28;20391;-84
2023/10/10 06:25:43;;;;;;;23.98;11.63;;;10.10;99.90;;;;;;5014019;28;20038;-83
2023/10/10 06:28:22;;;;;;;22.95;10.77;;;10.20;99.90;;;;;;5013794;28;20499;-83
2023/10/10 06:30:52;;;;;;;25.33;10.73;;;10.30;99.90;;;;;;5013538;28;20116;-83
2023/10/10 06:33:27;;;;;;;30.10;12.05;;;10.40;99.90;;;;;;5029737;28;20057;-83
2023/10/10 06:41:49;;;;;;;26.90;9.30;;;10.80;99.90;;;;;;5024902;28;20049;-83
2023/10/10 06:44:17;;;;;;;20.05;9.55;;;11.00;99.90;;;;;;5029593;28;20044;-83
2023/10/10 06:46:47;;;;;;;24.02;9.15;;;11.20;99.90;;;;;;5030570;28;20030;-83
2023/10/10 06:49:13;;;;;;;20.45;9.27;;;11.40;99.90;;;;;;5032261;28;20112;-83
2023/10/10 06:51:40;;;;;;;21.80;8.90;;;11.60;99.90;;;;;;5033805;28;20494;-83
2023/10/10 06:54:09;;;;;;;15.98;8.68;;;11.80;99.90;;;;;;5018455;28;20035;-83
2023/10/10 06:56:45;;;;;;;20.88;8.15;;;12.00;99.90;;;;;;5034304;28;20030;-84
2023/10/10 06:59:20;;;;;;;19.13;9.00;;;12.20;99.90;;;;;;5034500;28;20040;-84
2023/10/10 07:01:46;;;;;;;18.95;8.77;;;12.50;99.90;;;;;;5033786;28;20191;-84
2023/10/10 07:04:13;;;;;;;17.05;7.97;;;12.70;99.90;;;;;;5034931;28;20026;-84
2023/10/10 07:06:47;;;;;;;21.27;8.65;;;12.80;99.90;;;;;;5017581;28;20503;-84
2023/10/10 07:09:28;;;;;;;19.42;8.15;;;12.90;99.90;;;;;;5034056;28;20033;-84
2023/10/10 07:11:56;;;;;;;21.17;8.25;;;13.00;99.90;;;;;;5033634;28;20029;-83
2023/10/10 07:14:25;;;;;;;14.70;7.13;;;13.10;99.90;;;;;;5033851;28;20033;-83
2023/10/10 07:16:54;;;;;;;19.60;7.53;;;13.10;99.90;;;;;;5034187;28;20037;-84
2023/10/10 07:19:23;;;;;;;16.17;8.15;;;13.20;99.90;;;;;;5035396;28;20425;-83
2023/10/10 07:21:51;;;;;;;15.68;7.53;;;13.20;99.90;;;;;;5033793;28;20036;-84
2023/10/10 07:24:18;;;;;;;18.40;8.52;;;13.30;99.90;;;;;;5033594;28;20030;-84
2023/10/10 07:26:58;;;;;;;21.55;8.50;;;13.40;99.90;;;;;;5017182;28;20484;-84
2023/10/10 07:32:16;;;;;;;20.20;9.13;;;13.70;99.90;;;;;;5033700;28;20029;-84
2023/10/10 07:34:51;;;;;;;19.02;8.63;;;13.80;99.90;;;;;;5033705;28;20045;-84
2023/10/10 07:37:18;;;;;;;28.25;8.80;;;14.00;99.90;;;;;;5033368;28;20130;-83
2023/10/10 07:42:37;;;;;;;22.90;7.28;;;14.30;99.90;;;;;;5033363;28;20037;-84
2023/10/10 07:45:13;;;;;;;20.08;8.65;;;14.50;99.90;;;;;;5033238;28;20037;-84
2023/10/10 07:50:35;;;;;;;28.20;7.57;;;14.90;99.90;;;;;;5033344;28;20038;-84
2023/10/10 07:53:12;;;;;;;19.58;7.93;;;15.20;99.90;;;;;;5033401;28;20087;-84
2023/10/10 07:58:35;;;;;;;16.52;7.43;;;15.60;99.90;;;;;;5032720;28;20132;-83
2023/10/10 08:01:08;;;;;;;22.77;7.25;;;15.70;99.90;;;;;;5015966;28;20041;-84
2023/10/10 08:03:34;;;;;;;18.63;7.50;;;15.90;99.90;;;;;;5032111;28;20033;-84
2023/10/10 08:06:00;;;;;;;17.02;7.05;;;16.00;99.90;;;;;;5032806;28;20040;-83
2023/10/10 08:08:35;;;;;;;21.85;7.55;;;16.10;99.90;;;;;;5032956;28;20429;-84
2023/10/10 08:11:06;;;;;;;24.80;7.00;;;16.10;99.90;;;;;;5032655;28;20061;-84
2023/10/10 08:13:32;;;;;;;20.88;7.57;;;16.00;99.90;;;;;;5033024;28;20040;-84
2023/10/10 08:16:02;;;;;;;20.15;7.55;;;16.10;99.90;;;;;;5032949;28;20124;-84
2023/10/10 08:18:49;;;;;;;19.05;7.10;;;16.20;99.90;;;;;;5032773;28;20786;-84
2023/10/10 08:21:16;;;;;;;13.25;6.00;;;16.30;99.90;;;;;;5032626;28;20506;-84
2023/10/10 08:23:43;;;;;;;17.92;7.18;;;16.30;99.90;;;;;;5032694;28;20094;-84
2023/10/10 08:26:18;;;;;;;22.50;8.90;;;16.40;99.90;;;;;;5016019;28;20056;-84
2023/10/10 08:28:53;;;;;;;19.75;6.60;;;16.30;99.90;;;;;;5031531;28;20128;-84
2023/10/10 08:31:19;;;;;;;18.67;6.53;;;16.40;99.90;;;;;;5015339;28;20550;-83
2023/10/10 08:33:48;;;;;;;21.02;8.02;;;16.40;99.90;;;;;;5031802;28;20029;-84
2023/10/10 08:36:23;;;;;;;21.10;7.38;;;16.50;99.90;;;;;;5031871;28;20025;-84
2023/10/10 08:38:57;;;;;;;22.92;7.40;;;16.50;99.90;;;;;;5031576;28;20131;-84
2023/10/10 08:41:30;;;;;;;19.02;7.32;;;16.60;99.90;;;;;;5032989;28;20069;-84
2023/10/10 08:44:01;;;;;;;16.02;6.78;;;16.70;99.90;;;;;;5031987;28;20033;-84
2023/10/10 08:46:46;;;;;;;19.17;7.07;;;16.90;99.90;;;;;;5031968;28;20039;-84
2023/10/10 08:49:13;;;;;;;16.88;7.50;;;17.10;99.90;;;;;;5033317;28;20026;-84
2023/10/10 08:51:44;;;;;;;19.70;7.53;;;17.20;99.90;;;;;;5031867;28;20022;-84
2023/10/10 08:54:12;;;;;;;15.82;6.57;;;17.30;99.90;;;;;;5031742;28;20040;-83
2023/10/10 08:56:59;;;;;;;17.30;7.32;;;17.40;99.90;;;;;;5031845;28;20778;-84
2023/10/10 08:59:29;;;;;;;17.55;6.70;;;17.40;99.90;;;;;;5032089;28;20034;-84
2023/10/10 09:02:17;;;;;;;17.50;6.50;;;17.40;99.90;;;;;;5032232;28;20046;-84
2023/10/10 09:04:43;;;;;;;19.75;7.53;;;17.50;99.90;;;;;;5031596;28;20437;-83
2023/10/10 09:07:19;;;;;;;23.30;6.82;;;17.70;99.90;;;;;;5031403;28;20037;-84
2023/10/10 09:09:54;;;;;;;14.10;6.90;;;17.90;99.90;;;;;;5031252;28;20124;-84
2023/10/10 09:12:20;;;;;;;20.90;6.78;;;18.30;99.90;;;;;;5031016;28;20044;-84
2023/10/10 09:14:50;;;;;;;49.80;7.82;;;18.70;99.90;;;;;;5030953;28;20088;-84
2023/10/10 09:17:35;;;;;;;36.40;7.60;;;19.10;99.90;;;;;;5031165;28;20037;-84
2023/10/10 09:22:51;;;;;;;27.90;6.97;;;19.00;99.90;;;;;;5030954;28;20048;-84
2023/10/10 09:28:30;;;;;;;19.15;6.75;;;19.70;99.90;;;;;;5020265;28;20132;-84
2023/10/10 09:31:00;;;;;;;42.70;7.88;;;20.10;99.90;;;;;;5032371;28;20037;-84
2023/10/10 09:33:30;;;;;;;14.57;6.15;;;20.40;99.90;;;;;;5031038;28;20029;-84
2023/10/10 09:36:09;;;;;;;19.25;6.63;;;20.50;99.90;;;;;;5031411;28;20037;-85
2023/10/10 09:39:26;;;;;;;22.83;6.40;;;20.60;99.90;;;;;;5030936;28;20034;-84
2023/10/10 09:49:52;;;;;;;16.92;5.95;;;20.90;99.90;;;;;;5031002;28;20033;-84
2023/10/10 09:57:42;;;;;;;11.90;6.13;;;20.80;99.90;;;;;;5033275;28;20040;-84
2023/10/10 10:00:15;;;;;;;20.73;6.63;;;20.40;99.90;;;;;;5032546;28;20132;-84
2023/10/10 10:02:43;;;;;;;12.25;5.70;;;20.30;99.90;;;;;;5035869;28;20046;-84
2023/10/10 10:05:15;;;;;;;22.35;6.35;;;20.50;99.90;;;;;;5032735;28;20038;-84
2023/10/10 10:08:00;;;;;;;16.40;6.63;;;20.50;99.90;;;;;;5032736;28;20330;-84
2023/10/10 10:10:46;;;;;;;23.88;6.30;;;20.50;99.90;;;;;;5031613;28;20504;-84
2023/10/10 10:13:37;;;;;;;20.58;5.82;;;20.40;99.90;;;;;;5031843;28;20029;-84
2023/10/10 10:16:15;;;;;;;16.75;6.18;;;20.80;99.90;;;;;;5031513;28;20080;-84
2023/10/10 10:18:46;;;;;;;13.50;6.60;;;21.30;99.90;;;;;;5031471;28;20029;-84
2023/10/10 10:21:30;;;;;;;12.50;5.63;;;21.40;99.90;;;;;;5031729;28;20064;-85
2023/10/10 10:24:15;;;;;;;14.98;6.68;;;21.20;99.90;;;;;;5031427;28;20042;-84
2023/10/10 10:26:43;;;;;;;20.10;6.65;;;21.30;99.90;;;;;;5034991;28;20041;-85
2023/10/10 10:29:22;;;;;;;24.70;6.82;;;21.20;99.90;;;;;;5019239;28;20016;-84
2023/10/10 10:35:56;;;;;;;17.50;5.82;;;21.20;99.90;;;;;;5037790;28;20165;-85
2023/10/10 10:38:23;;;;;;;16.42;5.97;;;21.40;99.90;;;;;;5020152;28;20033;-84
2023/10/10 10:41:04;;;;;;;16.92;6.35;;;21.20;99.90;;;;;;5035922;28;20057;-85
2023/10/10 10:44:08;;;;;;;15.75;5.68;;;21.40;99.90;;;;;;5028175;28;20094;-85
2023/10/10 10:46:40;;;;;;;15.25;6.22;;;21.50;99.90;;;;;;5035511;28;20128;-84
2023/10/10 10:49:12;;;;;;;14.93;5.90;;;21.30;99.90;;;;;;5035468;28;20484;-84
2023/10/10 10:51:47;;;;;;;13.38;5.60;;;21.30;99.90;;;;;;5034937;28;20029;-84
2023/10/10 10:54:35;;;;;;;16.38;6.38;;;21.50;99.90;;;;;;5035342;28;20032;-84
2023/10/10 10:57:27;;;;;;;16.83;5.38;;;21.50;99.90;;;;;;5035041;28;20030;-84
2023/10/10 11:03:23;;;;;;;13.73;6.20;;;21.40;99.90;;;;;;5036990;28;20040;-84
2023/10/10 11:05:57;;;;;;;13.45;6.43;;;21.50;99.90;;;;;;5035345;28;20042;-84
2023/10/10 11:13:54;;;;;;;19.83;9.10;;;21.90;99.90;;;;;;5035030;28;20083;-84
2023/10/10 11:16:28;;;;;;;12.80;6.38;;;22.20;99.90;;;;;;5034721;28;20549;-85
2023/10/10 11:19:04;;;;;;;15.07;6.47;;;23.00;99.90;;;;;;5018629;28;20518;-85
2023/10/10 11:21:30;;;;;;;16.67;6.07;;;23.40;99.90;;;;;;5035036;28;20472;-85
2023/10/10 11:23:59;;;;;;;16.20;6.20;;;23.60;99.90;;;;;;5034405;28;20118;-84
2023/10/10 11:26:34;;;;;;;18.50;6.20;;;23.60;99.90;;;;;;5034595;28;20053;-84
2023/10/10 11:29:00;;;;;;;17.50;6.60;;;23.10;99.90;;;;;;5034889;28;20029;-85
2023/10/10 11:31:29;;;;;;;11.23;6.25;;;23.10;99.90;;;;;;5034315;28;20037;-84
2023/10/10 11:34:26;;;;;;;19.30;6.32;;;23.10;99.90;;;;;;5034037;28;20486;-85
2023/10/10 11:37:30;;;;;;;15.57;6.03;;;23.10;99.90;;;;;;5016313;28;20443;-85
2023/10/10 11:40:19;;;;;;;16.48;5.60;;;23.00;99.90;;;;;;5034149;28;20510;-84
2023/10/10 11:42:49;;;;;;;15.82;6.53;;;23.30;99.90;;;;;;5034263;28;20026;-85
2023/10/10 11:45:19;;;;;;;13.70;6.63;;;23.30;99.90;;;;;;5034307;28;20047;-84
2023/10/10 11:47:47;;;;;;;17.47;6.60;;;23.20;99.90;;;;;;5034622;28;20080;-84
2023/10/10 11:50:19;;;;;;;17.88;6.53;;;23.10;99.90;;;;;;5018054;28;20071;-85
2023/10/10 11:52:52;;;;;;;17.98;7.18;;;23.10;99.00;;;;;;5034138;28;20037;-84
2023/10/10 11:55:25;;;;;;;17.02;6.78;;;22.90;99.50;;;;;;5017460;28;20017;-85
2023/10/10 11:57:57;;;;;;;14.93;6.18;;;22.90;99.80;;;;;;5034308;28;20088;-85
2023/10/10 12:00:35;;;;;;;19.63;7.55;;;22.50;98.50;;;;;;5033818;28;20550;-84
2023/10/10 12:03:05;;;;;;;10.73;6.40;;;22.30;99.50;;;;;;5033435;28;20076;-84
2023/10/10 12:08:05;;;;;;;18.05;7.07;;;22.30;99.60;;;;;;5033546;28;20029;-84
2023/10/10 12:16:11;;;;;;;15.60;6.38;;;22.00;99.90;;;;;;5033831;28;20247;-85
2023/10/10 12:18:44;;;;;;;26.98;6.30;;;22.10;99.90;;;;;;5033901;28;20083;-84
2023/10/10 12:21:19;;;;;;;16.30;6.55;;;22.00;99.90;;;;;;5033874;28;20060;-84
2023/10/10 12:23:47;;;;;;;16.77;6.47;;;21.90;99.90;;;;;;5034036;28;20041;-84
2023/10/10 12:26:13;;;;;;;19.85;6.72;;;21.80;99.90;;;;;;5032929;28;20025;-84
2023/10/10 12:28:38;;;;;;;18.65;7.00;;;21.60;99.90;;;;;;5033493;28;20434;-84
2023/10/10 12:31:08;;;;;;;19.98;6.95;;;21.40;99.90;;;;;;5033638;28;20021;-84
2023/10/10 12:33:36;;;;;;;19.98;7.43;;;21.40;99.90;;;;;;5016991;28;20034;-84
2023/10/10 12:36:09;;;;;;;19.98;7.63;;;21.50;99.90;;;;;;5032991;28;20045;-84
2023/10/10 12:38:35;;;;;;;18.65;8.23;;;21.60;99.90;;;;;;5034549;28;20108;-83
2023/10/10 12:41:00;;;;;;;24.45;9.18;;;21.50;99.90;;;;;;5016877;28;20042;-83
2023/10/10 12:43:26;;;;;;;19.15;7.32;;;21.80;99.90;;;;;;5033505;28;20033;-83
2023/10/10 12:46:01;;;;;;;19.88;7.65;;;21.70;99.90;;;;;;5016076;28;20087;-83
2023/10/10 12:48:28;;;;;;;20.08;8.25;;;21.80;99.90;;;;;;5032827;28;20030;-84
2023/10/10 12:50:54;;;;;;;19.52;7.60;;;21.90;99.90;;;;;;5033440;28;20124;-84
2023/10/10 12:53:20;;;;;;;22.25;8.18;;;21.80;99.90;;;;;;5032598;28;20789;-84
2023/10/10 12:56:16;;;;;;;21.08;8.52;;;21.70;99.90;;;;;;5032987;28;20065;-84
2023/10/10 12:58:43;;;;;;;17.55;8.10;;;21.50;99.90;;;;;;5033357;28;20033;-84
2023/10/10 13:01:22;;;;;;;20.63;7.85;;;21.30;99.90;;;;;;5032756;28;20041;-84
2023/10/10 13:04:17;;;;;;;22.00;7.85;;;21.40;99.90;;;;;;5031985;28;20045;-84
2023/10/10 13:06:43;;;;;;;20.58;7.15;;;21.40;99.90;;;;;;5032988;28;20040;-84
2023/10/10 13:09:14;;;;;;;24.58;7.82;;;21.40;99.90;;;;;;5032482;28;20030;-84
2023/10/10 13:11:48;;;;;;;23.52;7.40;;;21.50;99.90;;;;;;5032610;28;20040;-84
2023/10/10 13:14:19;;;;;;;18.25;7.88;;;21.50;99.90;;;;;;5032185;28;20060;-84
2023/10/10 13:19:12;;;;;;;23.20;8.70;;;21.20;99.90;;;;;;5032543;28;20060;-84
2023/10/10 13:21:47;;;;;;;22.45;8.02;;;21.10;99.90;;;;;;5031788;28;20044;-84
2023/10/10 13:24:39;;;;;;;18.08;7.95;;;21.10;99.90;;;;;;5032652;28;20106;-84
2023/10/10 13:27:06;;;;;;;24.70;8.57;;;21.20;99.90;;;;;;5032463;28;20037;-83
2023/10/10 13:29:32;;;;;;;23.67;8.75;;;20.80;99.90;;;;;;5033042;28;20506;-83
2023/10/10 13:31:58;;;;;;;22.85;9.88;;;20.70;99.90;;;;;;5032251;28;20026;-84
2023/10/10 13:34:50;;;;;;;25.88;9.30;;;20.70;99.90;;;;;;5031932;28;20037;-84
2023/10/10 13:37:16;;;;;;;21.15;9.25;;;20.60;99.90;;;;;;5032241;28;20037;-84
2023/10/10 13:39:47;;;;;;;18.05;8.23;;;20.40;99.90;;;;;;5031889;28;20116;-83
2023/10/10 13:42:17;;;;;;;29.58;10.30;;;20.40;99.90;;;;;;5031926;28;20806;-84
2023/10/10 13:44:43;;;;;;;21.35;8.18;;;20.60;99.90;;;;;;5015474;28;20357;-84
2023/10/10 13:47:10;;;;;;;28.25;8.57;;;20.60;99.90;;;;;;5030878;28;20365;-83
2023/10/10 13:49:44;;;;;;;22.88;8.00;;;20.80;99.90;;;;;;5031448;28;20029;-84
2023/10/10 13:52:16;;;;;;;20.23;8.18;;;20.80;99.90;;;;;;5015664;28;20030;-83
2023/10/10 13:54:57;;;;;;;25.48;8.55;;;20.80;99.90;;;;;;5032120;28;20041;-84
2023/10/10 13:57:22;;;;;;;;;;;20.70;99.90;;;;;;5016091;28;20390;-84
2023/10/10 13:59:49;;;;;;;24.40;8.45;;;20.60;99.90;;;;;;5032011;28;19909;-84
2023/10/10 14:02:16;;;;;;;23.20;8.65;;;20.50;99.90;;;;;;5032320;28;20036;-84
2023/10/10 14:04:50;;;;;;;23.73;8.70;;;20.30;99.90;;;;;;5032612;28;20076;-84
2023/10/10 14:07:16;;;;;;;24.90;8.23;;;20.20;99.90;;;;;;5015883;28;20552;-84
2023/10/10 14:10:33;;;;;;;20.45;7.57;;;20.10;99.90;;;;;;5015263;28;20061;-83
2023/10/10 14:13:11;;;;;;;26.00;9.13;;;20.00;99.90;;;;;;5047767;28;20026;-84
2023/10/10 14:15:36;;;;;;;22.52;7.60;;;20.00;99.90;;;;;;5031439;28;20033;-83
2023/10/10 14:18:03;;;;;;;20.67;7.55;;;20.00;99.90;;;;;;5031463;28;20045;-84
2023/10/10 14:20:29;;;;;;;23.05;7.15;;;20.00;99.90;;;;;;5031885;28;20026;-84
2023/10/10 14:22:55;;;;;;;24.45;8.07;;;19.90;99.90;;;;;;5032370;28;20038;-84
2023/10/10 14:25:21;;;;;;;21.58;7.68;;;19.80;99.90;;;;;;5031938;28;20124;-84
2023/10/10 14:27:46;;;;;;;24.35;7.85;;;19.60;99.90;;;;;;5032555;28;20071;-84
2023/10/10 14:30:21;;;;;;;17.27;7.75;;;19.50;99.90;;;;;;5015001;28;20084;-84
2023/10/10 14:32:54;;;;;;;16.83;7.53;;;19.40;99.90;;;;;;5033678;28;20037;-84
2023/10/10 14:35:23;;;;;;;25.35;8.43;;;19.30;99.90;;;;;;5031937;28;20029;-84
2023/10/10 14:37:55;;;;;;;19.90;7.13;;;19.20;99.90;;;;;;5032476;28;20025;-84
2023/10/10 14:40:23;;;;;;;21.02;8.10;;;19.10;99.90;;;;;;5031994;28;20025;-84
2023/10/10 14:42:52;;;;;;;24.90;9.32;;;19.00;99.90;;;;;;5032466;28;20770;-83
2023/10/10 14:45:28;;;;;;;23.67;7.63;;;19.00;99.90;;;;;;5031386;28;20033;-84
2023/10/10 14:47:55;;;;;;;28.33;8.20;;;19.00;99.90;;;;;;5031527;28;20337;-83
2023/10/10 14:50:24;;;;;;;21.25;7.32;;;19.00;99.90;;;;;;5031547;28;20025;-83
2023/10/10 14:52:51;;;;;;;22.23;8.27;;;19.00;99.90;;;;;;5031186;28;20055;-84
2023/10/10 14:55:27;;;;;;;24.80;8.93;;;19.00;99.90;;;;;;5031064;28;20065;-84
2023/10/10 14:57:57;;;;;;;24.30;8.02;;;18.90;99.90;;;;;;5031872;28;20037;-84
2023/10/10 15:00:29;;;;;;;20.63;7.93;;;18.90;99.90;;;;;;5031329;28;20548;-84
2023/10/10 15:02:55;;;;;;;26.17;8.57;;;18.80;99.90;;;;;;5030582;28;20029;-84
2023/10/10 15:05:25;;;;;;;20.60;7.30;;;18.90;99.90;;;;;;5031145;28;20392;-84
2023/10/10 15:07:52;;;;;;;19.38;7.00;;;18.90;99.90;;;;;;5015193;28;20080;-84
2023/10/10 15:10:25;;;;;;;26.65;7.70;;;18.90;99.90;;;;;;5031241;28;20057;-83
2023/10/10 15:12:53;;;;;;;16.75;7.13;;;18.90;99.90;;;;;;5034771;28;20030;-83
2023/10/10 15:15:19;;;;;;;20.83;7.07;;;18.80;99.90;;;;;;5034770;28;20029;-83
2023/10/10 15:17:45;;;;;;;25.15;6.90;;;18.80;99.90;;;;;;5035469;28;20124;-84
2023/10/10 15:20:14;;;;;;;23.60;7.55;;;18.80;99.90;;;;;;5035049;28;20061;-84
2023/10/10 15:22:41;;;;;;;15.80;6.82;;;18.80;99.90;;;;;;5034105;28;20064;-82
2023/10/10 15:25:10;;;;;;;21.38;7.15;;;18.70;99.90;;;;;;5034518;28;20061;-83
2023/10/10 15:27:40;;;;;;;16.20;7.30;;;18.60;99.90;;;;;;5035080;28;20099;-84
2023/10/10 15:30:08;;;;;;;28.15;7.43;;;18.70;99.90;;;;;;5034950;28;20026;-84
2023/10/10 15:32:44;;;;;;;18.25;7.85;;;18.70;99.90;;;;;;5034724;28;20133;-83
2023/10/10 15:35:11;;;;;;;17.73;6.70;;;18.70;99.90;;;;;;5034512;28;20040;-83
2023/10/10 15:37:42;;;;;;;25.92;8.70;;;18.60;99.90;;;;;;5034411;28;20464;-83
2023/10/10 15:40:13;;;;;;;18.75;8.07;;;18.50;99.90;;;;;;5034242;28;20029;-83
2023/10/10 15:42:40;;;;;;;21.10;8.77;;;18.40;99.90;;;;;;5034126;28;20128;-83
2023/10/10 15:45:43;;;;;;;19.40;8.32;;;18.30;99.90;;;;;;5034193;28;20009;-83
2023/10/10 15:48:21;;;;;;;28.30;9.30;;;18.20;99.90;;;;;;5035645;28;20365;-84
2023/10/10 15:50:51;;;;;;;24.48;9.68;;;18.00;99.90;;;;;;5035684;28;20122;-84
2023/10/10 15:53:48;;;;;;;24.35;9.13;;;17.80;99.90;;;;;;5033547;28;20039;-83
2023/10/10 15:56:16;;;;;;;22.08;9.20;;;17.50;99.90;;;;;;5033837;28;20038;-83
2023/10/10 15:58:52;;;;;;;32.38;8.95;;;17.20;99.90;;;;;;5035051;28;20048;-84
2023/10/10 16:01:27;;;;;;;20.67;8.00;;;17.00;99.90;;;;;;5033484;28;20369;-84
2023/10/10 16:03:59;;;;;;;29.33;8.63;;;16.80;99.90;;;;;;5034024;28;20072;-83
2023/10/10 16:06:27;;;;;;;23.42;7.35;;;16.70;99.90;;;;;;5017783;28;20052;-83
2023/10/10 16:08:56;;;;;;;23.08;7.28;;;16.50;99.90;;;;;;5034431;28;20025;-83
2023/10/10 16:11:43;;;;;;;26.65;8.02;;;16.50;99.90;;;;;;5034004;28;20037;-83
2023/10/10 16:14:11;;;;;;;24.73;8.02;;;16.40;99.90;;;;;;5033669;28;20030;-84
2023/10/10 16:16:45;;;;;;;19.23;7.55;;;16.30;99.90;;;;;;5033798;28;20531;-83